Time;durP1;ratioP1;P1;durP2;ratioP2;P2;SDS_P1;SDS_P2;PMS_P1;PMS_P2;Temp;Humidity;BMP_temperature;BMP_pressure;BME280_temperature;BME280_humidity;BME280_pressure;Samples;Min_cycle;Max_cycle;Signal;HPM_P1;HPM_P2
2023/12/09 00:02:24;;;;;;;31.55;14.88;;;1.70;1.00;;;;;;5196270;28;20037;-35
2023/12/09 00:04:55;;;;;;;27.47;14.17;;;1.70;1.00;;;;;;5203676;28;20026;-34
2023/12/09 00:07:29;;;;;;;30.17;14.73;;;1.70;1.00;;;;;;5186128;28;20025;-35
2023/12/09 00:10:04;;;;;;;25.67;13.85;;;1.60;1.00;;;;;;5196888;28;20029;-35
2023/12/09 00:12:37;;;;;;;29.92;13.68;;;1.60;1.00;;;;;;5192391;28;20215;-35
2023/12/09 00:15:09;;;;;;;25.17;14.85;;;1.60;1.00;;;;;;5190707;28;20033;-35
2023/12/09 00:17:46;;;;;;;31.65;14.48;;;1.60;1.00;;;;;;5181595;28;20233;-35
2023/12/09 00:20:20;;;;;;;31.23;14.45;;;1.70;1.00;;;;;;5188766;28;20037;-36
2023/12/09 00:22:53;;;;;;;29.88;14.93;;;1.60;1.00;;;;;;5199103;28;20341;-34
2023/12/09 00:25:30;;;;;;;32.47;15.23;;;1.60;1.00;;;;;;5197604;28;20037;-35
2023/12/09 00:28:01;;;;;;;26.90;13.95;;;1.50;1.00;;;;;;5188718;28;20033;-34
2023/12/09 00:30:34;;;;;;;24.98;14.77;;;1.30;1.00;;;;;;5176738;28;20499;-34
2023/12/09 00:33:08;;;;;;;31.20;14.88;;;1.40;1.00;;;;;;5190750;28;20029;-34
2023/12/09 00:35:39;;;;;;;29.08;15.57;;;1.40;1.00;;;;;;5193656;28;20220;-34
2023/12/09 00:38:10;;;;;;;28.38;13.60;;;1.30;1.00;;;;;;5179824;28;20034;-34
2023/12/09 00:40:44;;;;;;;29.58;15.20;;;1.30;1.00;;;;;;5207714;28;20033;-34
2023/12/09 00:43:17;;;;;;;28.05;13.93;;;1.30;1.00;;;;;;5178638;28;20025;-34
2023/12/09 00:45:51;;;;;;;27.67;15.57;;;1.40;1.00;;;;;;5196579;28;20396;-34
2023/12/09 00:48:22;;;;;;;29.80;14.57;;;1.30;1.00;;;;;;5193340;28;20358;-35
2023/12/09 00:50:56;;;;;;;30.55;14.60;;;1.30;1.00;;;;;;5195288;28;20033;-34
2023/12/09 00:53:27;;;;;;;31.65;14.23;;;1.40;1.00;;;;;;5192245;28;20234;-34
2023/12/09 00:55:58;;;;;;;29.83;14.65;;;1.50;1.00;;;;;;5195231;28;20244;-34
2023/12/09 00:58:32;;;;;;;29.23;14.15;;;1.50;1.00;;;;;;5197065;28;20459;-34
2023/12/09 01:01:05;;;;;;;35.45;15.00;;;1.40;1.00;;;;;;5175085;28;20038;-34
2023/12/09 01:03:37;;;;;;;30.98;15.55;;;1.40;1.00;;;;;;5189436;28;20034;-34
2023/12/09 01:06:13;;;;;;;25.08;13.27;;;1.40;1.00;;;;;;5196469;28;20229;-34
2023/12/09 01:08:45;;;;;;;27.17;13.90;;;1.50;1.00;;;;;;5194780;28;20025;-35
2023/12/09 01:11:16;;;;;;;29.85;15.77;;;1.50;1.00;;;;;;5195838;28;20037;-34
2023/12/09 01:13:47;;;;;;;26.38;12.95;;;1.50;1.00;;;;;;5193423;28;20044;-34
2023/12/09 01:16:19;;;;;;;29.02;15.05;;;1.60;1.00;;;;;;5183561;28;20044;-34
2023/12/09 01:18:56;;;;;;;31.00;15.73;;;1.70;1.00;;;;;;5196339;28;20470;-34
2023/12/09 01:21:27;;;;;;;29.63;14.68;;;1.70;1.00;;;;;;5196202;28;20059;-34
2023/12/09 01:24:00;;;;;;;29.08;14.30;;;1.70;1.00;;;;;;5202277;28;20044;-34
2023/12/09 01:26:31;;;;;;;26.10;13.48;;;1.70;1.00;;;;;;5193092;28;21321;-35
2023/12/09 01:29:06;;;;;;;32.97;14.43;;;1.60;1.00;;;;;;5180311;28;20045;-34
2023/12/09 01:31:37;;;;;;;;;;;1.60;1.00;;;;;;5188066;28;20038;-34
2023/12/09 01:34:10;;;;;;;29.40;13.75;;;1.60;1.00;;;;;;5200435;28;19963;-34
2023/12/09 01:36:41;;;;;;;28.83;13.25;;;1.70;1.00;;;;;;5189345;28;20044;-34
2023/12/09 01:39:13;;;;;;;27.75;13.63;;;1.70;1.00;;;;;;5180576;28;20042;-34
2023/12/09 01:41:48;;;;;;;27.75;12.80;;;1.70;1.00;;;;;;5184048;28;20029;-34
2023/12/09 01:44:20;;;;;;;28.65;14.35;;;1.80;1.00;;;;;;5198054;28;20041;-35
2023/12/09 01:46:53;;;;;;;26.90;13.50;;;1.80;1.00;;;;;;5187272;28;20108;-35
2023/12/09 01:49:33;;;;;;;27.38;13.52;;;1.80;1.00;;;;;;5179094;28;20053;-35
2023/12/09 01:52:07;;;;;;;29.45;14.70;;;1.60;1.00;;;;;;5184327;28;20052;-35
2023/12/09 01:54:40;;;;;;;33.53;14.98;;;1.60;1.00;;;;;;5209688;28;20043;-34
2023/12/09 01:57:15;;;;;;;26.17;14.18;;;1.70;1.00;;;;;;5210193;28;20340;-35
2023/12/09 01:59:48;;;;;;;26.38;13.25;;;1.80;1.00;;;;;;5185513;28;20041;-35
2023/12/09 02:02:20;;;;;;;21.67;11.20;;;1.90;1.00;;;;;;5196010;28;20053;-35
2023/12/09 02:04:52;;;;;;;29.00;13.75;;;1.90;1.00;;;;;;5200198;28;20540;-35
2023/12/09 02:07:31;;;;;;;26.38;13.20;;;1.90;1.00;;;;;;5184636;28;20033;-34
2023/12/09 02:10:06;;;;;;;23.60;11.80;;;2.00;1.00;;;;;;5199522;28;20036;-34
2023/12/09 02:12:47;;;;;;;25.63;13.32;;;2.00;1.00;;;;;;5195702;28;20263;-35
2023/12/09 02:15:25;;;;;;;24.92;14.07;;;2.00;1.00;;;;;;5195770;28;20040;-35
2023/12/09 02:18:01;;;;;;;25.30;13.38;;;2.00;1.00;;;;;;5187860;28;20030;-35
2023/12/09 02:20:35;;;;;;;29.45;13.57;;;2.00;1.00;;;;;;5199793;28;20295;-35
2023/12/09 02:23:11;;;;;;;26.05;12.50;;;1.90;1.00;;;;;;5210235;28;20230;-34
2023/12/09 02:25:42;;;;;;;25.92;13.50;;;1.90;1.00;;;;;;5203302;28;20235;-35
2023/12/09 02:28:31;;;;;;;28.75;12.52;;;1.70;1.00;;;;;;5185989;28;20372;-35
2023/12/09 02:31:23;;;;;;;28.13;13.70;;;1.80;1.00;;;;;;5181732;28;20330;-35
2023/12/09 02:34:00;;;;;;;25.60;12.50;;;1.80;1.00;;;;;;5183273;28;20025;-34
2023/12/09 02:36:34;;;;;;;29.45;13.73;;;1.70;1.00;;;;;;5196646;28;20037;-35
2023/12/09 02:39:07;;;;;;;;;;;1.80;1.00;;;;;;5199108;28;20028;-35
2023/12/09 02:41:40;;;;;;;26.00;13.40;;;1.70;1.00;;;;;;5198553;28;20205;-34
2023/12/09 02:44:12;;;;;;;23.15;12.20;;;1.70;1.00;;;;;;5197192;28;20029;-35
2023/12/09 02:46:53;;;;;;;26.15;11.82;;;1.60;1.00;;;;;;5191042;28;20029;-34
2023/12/09 02:49:24;;;;;;;27.90;12.93;;;1.50;1.00;;;;;;5183092;28;20033;-34
2023/12/09 02:51:55;;;;;;;27.00;12.43;;;1.50;1.00;;;;;;5194352;28;20037;-34
2023/12/09 02:54:26;;;;;;;25.48;12.48;;;1.50;1.00;;;;;;5203677;28;20374;-34
2023/12/09 02:57:03;;;;;;;22.17;12.23;;;1.40;1.00;;;;;;5192824;28;20040;-34
2023/12/09 02:59:35;;;;;;;29.10;14.68;;;1.30;1.00;;;;;;5193931;28;20029;-34
2023/12/09 03:02:06;;;;;;;26.85;13.30;;;1.20;1.00;;;;;;5194688;28;20336;-34
2023/12/09 03:04:37;;;;;;;28.08;11.15;;;1.20;1.00;;;;;;5197648;28;20030;-34
2023/12/09 03:07:08;;;;;;;30.17;13.30;;;1.30;1.00;;;;;;5204322;28;20038;-35
2023/12/09 03:09:44;;;;;;;25.02;12.98;;;1.20;1.00;;;;;;5176333;28;20037;-35
2023/12/09 03:12:16;;;;;;;26.02;14.75;;;1.20;1.00;;;;;;5190024;28;20017;-34
2023/12/09 03:14:50;;;;;;;28.02;13.05;;;1.20;1.00;;;;;;5193473;28;20030;-34
2023/12/09 03:17:21;;;;;;;27.85;14.25;;;1.20;1.00;;;;;;5192348;28;20031;-34
2023/12/09 03:19:55;;;;;;;27.75;13.27;;;1.20;1.00;;;;;;5197098;28;20041;-34
2023/12/09 03:22:26;;;;;;;32.45;14.48;;;1.10;1.00;;;;;;5196614;28;20040;-34
2023/12/09 03:24:57;;;;;;;28.00;13.57;;;1.10;1.00;;;;;;5199983;28;20037;-35
2023/12/09 03:27:29;;;;;;;28.45;13.65;;;1.00;1.00;;;;;;5192827;28;20030;-34
2023/12/09 03:30:00;;;;;;;29.05;13.98;;;1.00;1.00;;;;;;5176787;28;20291;-35
2023/12/09 03:32:31;;;;;;;26.77;14.38;;;1.10;1.00;;;;;;5179215;28;20029;-35
2023/12/09 03:35:07;;;;;;;25.10;13.48;;;1.10;1.00;;;;;;5181588;28;20033;-35
2023/12/09 03:37:44;;;;;;;30.27;14.38;;;1.20;1.00;;;;;;5189986;28;20049;-34
2023/12/09 03:40:15;;;;;;;26.92;13.85;;;1.20;1.00;;;;;;5193536;28;20245;-34
2023/12/09 03:42:47;;;;;;;26.77;14.50;;;1.10;1.00;;;;;;5194186;28;20033;-34
2023/12/09 03:45:18;;;;;;;27.08;13.73;;;1.00;1.00;;;;;;5185059;28;20030;-35
2023/12/09 03:47:49;;;;;;;24.27;12.90;;;1.00;1.00;;;;;;5197818;28;20043;-34
2023/12/09 03:50:20;;;;;;;30.67;13.50;;;1.00;1.00;;;;;;5180132;28;20043;-35
2023/12/09 03:53:10;;;;;;;27.50;13.45;;;1.00;1.00;;;;;;5189066;28;20073;-34
2023/12/09 03:55:43;;;;;;;29.55;14.10;;;1.10;1.00;;;;;;5187879;28;20509;-35
2023/12/09 03:58:14;;;;;;;25.67;12.45;;;1.20;1.00;;;;;;5178812;28;20395;-35
2023/12/09 04:00:48;;;;;;;28.75;13.82;;;1.30;1.00;;;;;;5176252;28;20199;-34
2023/12/09 04:03:22;;;;;;;23.65;12.20;;;1.10;1.00;;;;;;5196823;28;20294;-35
2023/12/09 04:05:54;;;;;;;28.70;13.18;;;1.00;1.00;;;;;;5192667;28;20065;-34
2023/12/09 04:08:30;;;;;;;30.45;14.25;;;0.90;1.00;;;;;;5184187;28;20401;-34
2023/12/09 04:11:04;;;;;;;29.10;13.57;;;0.80;1.00;;;;;;5183827;28;20052;-34
2023/12/09 04:13:36;;;;;;;28.85;13.40;;;1.00;1.00;;;;;;5196769;28;20224;-36
2023/12/09 04:16:07;;;;;;;26.13;13.52;;;0.90;1.00;;;;;;5192883;28;20479;-34
2023/12/09 04:18:39;;;;;;;30.20;15.15;;;0.90;1.00;;;;;;5197362;28;20518;-34
2023/12/09 04:21:12;;;;;;;27.52;14.38;;;0.90;1.00;;;;;;5198937;28;20040;-34
2023/12/09 04:23:47;;;;;;;30.30;15.48;;;0.90;1.00;;;;;;5217992;28;20023;-34
2023/12/09 04:26:21;;;;;;;35.13;16.05;;;0.80;1.00;;;;;;5200923;28;20087;-33
2023/12/09 04:28:52;;;;;;;29.50;13.80;;;0.90;1.00;;;;;;5195844;28;20246;-33
2023/12/09 04:31:23;;;;;;;38.22;15.13;;;0.80;7.90;;;;;;5193050;28;20359;-33
2023/12/09 04:33:57;;;;;;;31.42;15.45;;;0.80;19.50;;;;;;5194720;28;20375;-33
2023/12/09 04:36:28;;;;;;;31.02;14.60;;;0.90;31.20;;;;;;5193426;28;20269;-33
2023/12/09 04:39:04;;;;;;;36.97;16.55;;;0.80;21.10;;;;;;5181837;28;20045;-33
2023/12/09 04:41:35;;;;;;;30.95;15.13;;;0.90;53.00;;;;;;5188704;28;20038;-35
2023/12/09 04:44:12;;;;;;;32.97;14.30;;;0.80;34.90;;;;;;5182543;28;20065;-33
2023/12/09 04:46:43;;;;;;;32.80;13.88;;;0.80;31.60;;;;;;5182813;28;20233;-33
2023/12/09 04:49:14;;;;;;;33.70;13.57;;;0.70;42.30;;;;;;5195680;28;20044;-33
2023/12/09 04:51:48;;;;;;;29.30;15.85;;;0.80;59.80;;;;;;5204269;28;20036;-33
2023/12/09 04:54:19;;;;;;;34.78;16.05;;;0.80;61.80;;;;;;5217459;28;20021;-33
2023/12/09 04:56:50;;;;;;;32.72;13.23;;;0.80;75.80;;;;;;5202179;28;20206;-33
2023/12/09 04:59:25;;;;;;;28.13;13.93;;;0.80;60.20;;;;;;5196145;28;20029;-33
2023/12/09 05:01:56;;;;;;;32.28;14.18;;;0.70;75.30;;;;;;5194164;28;20038;-33
2023/12/09 05:04:30;;;;;;;30.98;15.88;;;0.80;90.90;;;;;;5179020;28;20043;-33
2023/12/09 05:07:04;;;;;;;35.05;14.95;;;0.80;87.80;;;;;;5168416;28;20021;-35
2023/12/09 05:09:42;;;;;;;36.10;15.88;;;0.80;99.90;;;;;;5192090;28;20029;-35
2023/12/09 05:12:15;;;;;;;37.17;15.25;;;0.90;99.30;;;;;;5199004;28;20036;-33
2023/12/09 05:14:46;;;;;;;34.85;14.93;;;0.90;99.90;;;;;;5198441;28;20147;-32
2023/12/09 05:17:18;;;;;;;36.95;16.05;;;1.00;99.90;;;;;;5189023;28;20242;-33
2023/12/09 05:19:49;;;;;;;32.42;15.20;;;0.90;95.90;;;;;;5216480;28;20037;-33
2023/12/09 05:22:23;;;;;;;35.08;16.17;;;0.90;97.40;;;;;;5182589;28;20240;-33
2023/12/09 05:24:57;;;;;;;;;;;0.90;94.90;;;;;;5200735;28;20033;-33
2023/12/09 05:27:29;;;;;;;43.17;16.30;;;1.00;99.90;;;;;;5171762;28;19917;-33
2023/12/09 05:30:01;;;;;;;37.03;16.20;;;1.00;99.90;;;;;;5193878;28;20131;-33
2023/12/09 05:32:33;;;;;;;39.50;15.82;;;1.00;99.90;;;;;;5183830;28;20034;-36
2023/12/09 05:35:08;;;;;;;40.38;16.42;;;1.00;99.90;;;;;;5179458;28;20141;-36
2023/12/09 05:37:48;;;;;;;34.75;15.93;;;0.90;99.90;;;;;;5182778;28;20048;-34
2023/12/09 05:40:24;;;;;;;40.13;17.52;;;0.90;99.90;;;;;;5200142;28;20025;-33
2023/12/09 05:42:55;;;;;;;38.88;16.63;;;0.90;99.90;;;;;;5207141;28;20037;-34
2023/12/09 05:45:29;;;;;;;41.42;17.98;;;0.90;99.90;;;;;;5196272;28;20345;-34
2023/12/09 05:48:01;;;;;;;35.58;15.98;;;1.00;99.90;;;;;;5196541;28;20283;-33
2023/12/09 05:50:32;;;;;;;43.75;17.75;;;1.10;99.90;;;;;;5199037;28;20029;-33
2023/12/09 05:53:10;;;;;;;36.72;15.98;;;1.00;99.90;;;;;;5216779;28;20033;-33
2023/12/09 05:55:43;;;;;;;36.65;16.30;;;1.00;99.90;;;;;;5197647;28;20234;-33
2023/12/09 05:58:14;;;;;;;40.85;16.27;;;1.00;99.90;;;;;;5199889;28;20226;-33
2023/12/09 06:00:46;;;;;;;43.50;16.98;;;1.10;99.90;;;;;;5196200;28;20329;-34
2023/12/09 06:03:17;;;;;;;34.50;15.18;;;1.20;99.90;;;;;;5199477;28;20025;-33
2023/12/09 06:05:51;;;;;;;38.90;15.38;;;1.00;99.90;;;;;;5198213;28;20029;-33
2023/12/09 06:08:22;;;;;;;35.72;15.80;;;1.10;99.90;;;;;;5190408;28;20037;-33
2023/12/09 06:10:54;;;;;;;33.70;16.10;;;1.10;99.90;;;;;;5198994;28;20035;-33
2023/12/09 06:13:25;;;;;;;34.58;16.25;;;1.10;99.90;;;;;;5180213;28;20030;-33
2023/12/09 06:15:56;;;;;;;29.80;14.77;;;1.00;99.40;;;;;;5176529;28;20038;-33
2023/12/09 06:18:31;;;;;;;29.38;13.30;;;1.00;99.90;;;;;;5183379;28;20033;-33
2023/12/09 06:21:05;;;;;;;28.15;14.23;;;0.90;99.90;;;;;;5171317;28;20045;-33
2023/12/09 06:23:42;;;;;;;32.95;13.63;;;0.80;99.90;;;;;;5178805;28;20044;-33
2023/12/09 06:26:19;;;;;;;27.73;13.07;;;0.90;99.90;;;;;;5182632;28;20033;-33
2023/12/09 06:28:51;;;;;;;32.17;12.32;;;0.90;99.90;;;;;;5198038;28;20033;-33
2023/12/09 06:31:22;;;;;;;28.30;13.73;;;0.80;99.90;;;;;;5196148;28;20245;-33
2023/12/09 06:33:56;;;;;;;22.95;12.43;;;0.80;99.90;;;;;;5196928;28;20172;-33
2023/12/09 06:36:27;;;;;;;28.95;13.45;;;0.80;99.90;;;;;;5192238;28;20037;-33
2023/12/09 06:38:59;;;;;;;25.67;11.88;;;0.80;99.90;;;;;;5191155;28;20041;-33
2023/12/09 06:41:35;;;;;;;24.83;11.75;;;0.70;99.90;;;;;;5194427;28;20353;-33
2023/12/09 06:44:09;;;;;;;24.38;11.52;;;0.80;99.90;;;;;;5177420;28;20218;-33
2023/12/09 06:46:40;;;;;;;28.00;12.35;;;0.70;99.90;;;;;;5189716;28;20048;-33
2023/12/09 06:49:12;;;;;;;37.03;15.07;;;0.80;99.90;;;;;;5189503;28;20040;-33
2023/12/09 06:51:45;;;;;;;31.55;14.10;;;0.90;99.90;;;;;;5200847;28;20297;-33
2023/12/09 06:54:18;;;;;;;38.00;14.90;;;0.90;99.90;;;;;;5180010;28;20029;-33
2023/12/09 06:56:51;;;;;;;24.73;11.85;;;0.90;99.90;;;;;;5194820;28;20029;-33
2023/12/09 06:59:25;;;;;;;25.85;11.90;;;0.80;99.90;;;;;;5180614;28;20033;-33
2023/12/09 07:01:57;;;;;;;26.00;12.65;;;0.80;99.90;;;;;;5195784;28;20037;-33
2023/12/09 07:04:28;;;;;;;31.40;14.40;;;0.80;99.90;;;;;;5199483;28;20025;-33
2023/12/09 07:07:03;;;;;;;28.02;14.32;;;0.80;99.90;;;;;;5183440;28;20413;-33
2023/12/09 07:09:34;;;;;;;30.90;14.00;;;0.70;99.90;;;;;;5185491;28;20033;-34
2023/12/09 07:12:06;;;;;;;28.92;13.18;;;0.70;99.90;;;;;;5192979;28;20026;-47
2023/12/09 07:14:40;;;;;;;34.70;14.75;;;0.80;99.90;;;;;;5195003;28;20036;-43
2023/12/09 07:17:13;;;;;;;31.95;14.10;;;0.80;99.90;;;;;;5190997;28;20041;-39
2023/12/09 07:19:48;;;;;;;31.48;13.98;;;0.80;99.90;;;;;;5196444;28;20033;-38
2023/12/09 07:22:19;;;;;;;34.80;14.77;;;0.70;99.90;;;;;;5197343;28;20055;-39
2023/12/09 07:24:51;;;;;;;30.98;15.40;;;0.70;99.90;;;;;;5193126;28;20033;-40
2023/12/09 07:27:22;;;;;;;29.23;13.73;;;0.80;99.90;;;;;;5183216;28;20317;-41
2023/12/09 07:29:56;;;;;;;28.98;13.20;;;0.70;99.90;;;;;;5180372;28;20025;-41
2023/12/09 07:32:29;;;;;;;28.65;14.15;;;0.70;99.90;;;;;;5179493;28;20337;-41
2023/12/09 07:35:04;;;;;;;29.15;13.95;;;0.70;99.90;;;;;;5183097;28;20044;-42
2023/12/09 07:37:38;;;;;;;26.55;12.80;;;0.70;99.90;;;;;;5180831;28;20260;-43
2023/12/09 07:40:12;;;;;;;;;;;0.80;99.90;;;;;;5194242;28;20037;-42
2023/12/09 07:42:44;;;;;;;28.25;12.35;;;0.80;99.90;;;;;;5197258;28;20248;-43
2023/12/09 07:45:15;;;;;;;28.52;14.45;;;0.70;99.90;;;;;;5194724;28;20248;-43
2023/12/09 07:47:46;;;;;;;21.65;11.75;;;0.80;99.90;;;;;;5198143;28;20310;-43
2023/12/09 07:50:18;;;;;;;30.63;13.90;;;0.80;99.90;;;;;;5186281;28;20726;-46
2023/12/09 07:52:49;;;;;;;27.02;12.27;;;1.00;99.90;;;;;;5186791;28;20128;-46
2023/12/09 07:55:23;;;;;;;29.08;12.00;;;1.10;99.90;;;;;;5184446;28;20040;-46
2023/12/09 07:57:55;;;;;;;26.73;12.18;;;1.10;99.90;;;;;;5196209;28;20037;-46
2023/12/09 08:00:32;;;;;;;25.80;12.18;;;1.10;99.90;;;;;;5193287;28;20373;-43
2023/12/09 08:03:04;;;;;;;29.30;14.02;;;1.10;99.90;;;;;;5195882;28;20335;-44
2023/12/09 08:05:36;;;;;;;24.70;12.15;;;1.10;99.90;;;;;;5194136;28;20033;-44
2023/12/09 08:08:07;;;;;;;22.50;11.90;;;1.00;99.90;;;;;;5193036;28;20041;-45
2023/12/09 08:10:39;;;;;;;21.27;11.73;;;0.90;99.90;;;;;;5197119;28;20036;-46
2023/12/09 08:13:11;;;;;;;24.23;12.30;;;0.90;99.90;;;;;;5197185;28;20025;-46
2023/12/09 08:15:48;;;;;;;26.67;11.93;;;1.00;99.90;;;;;;5189936;28;20033;-46
2023/12/09 08:18:19;;;;;;;27.92;13.05;;;1.10;99.90;;;;;;5195141;28;20037;-47
2023/12/09 08:20:55;;;;;;;19.20;11.43;;;1.10;99.90;;;;;;5195838;28;20427;-47
2023/12/09 08:23:27;;;;;;;24.60;13.43;;;1.10;99.90;;;;;;5211733;28;20029;-47
2023/12/09 08:26:00;;;;;;;21.60;11.77;;;1.10;99.90;;;;;;5191683;28;20440;-45
2023/12/09 08:28:34;;;;;;;19.02;10.52;;;1.10;99.90;;;;;;5180983;28;20318;-45
2023/12/09 08:31:08;;;;;;;16.80;10.20;;;1.10;99.90;;;;;;5177222;28;20036;-46
2023/12/09 08:33:40;;;;;;;;;;;1.10;99.90;;;;;;5181993;28;20108;-46
2023/12/09 08:36:11;;;;;;;21.42;10.38;;;1.00;91.30;;;;;;5180794;28;19913;-46
2023/12/09 08:38:46;;;;;;;18.55;10.40;;;1.00;99.90;;;;;;5194005;28;20068;-46
2023/12/09 08:41:17;;;;;;;;;;;1.10;99.90;;;;;;5193710;28;20251;-46
2023/12/09 08:43:53;;;;;;;21.50;10.23;;;1.20;99.90;;;;;;5187323;28;19923;-47
2023/12/09 08:46:25;;;;;;;28.15;12.23;;;1.30;99.90;;;;;;5182969;28;20036;-46
2023/12/09 08:48:56;;;;;;;24.33;11.63;;;1.40;99.90;;;;;;5180448;28;20044;-47
2023/12/09 08:51:28;;;;;;;22.20;10.85;;;1.30;49.40;;;;;;5204778;28;20239;-46
2023/12/09 08:54:00;;;;;;;19.77;11.10;;;1.20;32.10;;;;;;5208709;28;20029;-46
2023/12/09 08:56:31;;;;;;;20.40;10.70;;;1.20;15.50;;;;;;5201318;28;20025;-46
2023/12/09 08:59:03;;;;;;;21.05;10.73;;;1.10;19.00;;;;;;5200951;28;20199;-45
2023/12/09 09:01:35;;;;;;;21.85;11.75;;;1.10;43.50;;;;;;5197947;28;20341;-45
2023/12/09 09:04:07;;;;;;;20.30;10.30;;;1.20;72.00;;;;;;5198395;28;20383;-45
2023/12/09 09:06:38;;;;;;;23.33;10.90;;;1.10;25.00;;;;;;5187063;28;20566;-45
2023/12/09 09:09:13;;;;;;;23.20;11.73;;;1.10;49.30;;;;;;5189833;28;20309;-46
2023/12/09 09:11:44;;;;;;;22.52;10.75;;;1.00;42.10;;;;;;5182468;28;20241;-46
2023/12/09 09:14:15;;;;;;;18.92;11.15;;;1.10;69.30;;;;;;5201057;28;20038;-46
2023/12/09 09:16:49;;;;;;;23.40;11.13;;;1.10;59.00;;;;;;5197756;28;20051;-46
2023/12/09 09:19:23;;;;;;;25.88;12.18;;;1.10;52.80;;;;;;5192671;28;20041;-46
2023/12/09 09:21:54;;;;;;;20.80;11.23;;;1.20;90.00;;;;;;5186384;28;20033;-46
2023/12/09 09:24:26;;;;;;;23.20;11.40;;;1.20;69.00;;;;;;5190967;28;20037;-46
2023/12/09 09:27:00;;;;;;;25.42;13.40;;;1.20;35.40;;;;;;5198321;28;20365;-46
2023/12/09 09:29:31;;;;;;;20.95;11.60;;;1.40;76.40;;;;;;5198909;28;20436;-46
2023/12/09 09:32:03;;;;;;;29.20;12.40;;;1.30;41.00;;;;;;5190920;28;20049;-46
2023/12/09 09:34:34;;;;;;;24.23;13.27;;;1.30;38.80;;;;;;5181883;28;20248;-46
2023/12/09 09:37:08;;;;;;;21.30;11.38;;;1.40;34.30;;;;;;5181959;28;20333;-46
2023/12/09 09:39:39;;;;;;;22.65;12.07;;;1.40;28.20;;;;;;5207255;28;20048;-46
2023/12/09 09:42:45;;;;;;;22.75;11.40;;;1.60;61.10;;;;;;5196511;28;20104;-46
2023/12/09 09:45:32;;;;;;;22.00;10.02;;;1.60;18.50;;;;;;5195708;28;20035;-46
2023/12/09 09:48:12;;;;;;;23.30;11.35;;;1.50;1.00;;;;;;5200843;28;20049;-46
2023/12/09 09:50:45;;;;;;;25.17;12.38;;;1.40;1.00;;;;;;5205711;28;20021;-46
2023/12/09 09:53:29;;;;;;;22.77;12.90;;;1.30;1.00;;;;;;5206455;28;20436;-46
2023/12/09 09:56:03;;;;;;;24.23;12.20;;;1.40;8.50;;;;;;5186205;28;20039;-46
2023/12/09 09:58:38;;;;;;;35.35;14.95;;;1.60;28.30;;;;;;5210498;28;20340;-46
2023/12/09 10:01:11;;;;;;;25.58;12.50;;;1.60;2.80;;;;;;5186889;28;20041;-46
2023/12/09 10:03:45;;;;;;;22.65;13.10;;;1.60;1.00;;;;;;5209819;28;20029;-46
2023/12/09 10:06:20;;;;;;;25.38;13.02;;;1.60;1.00;;;;;;5182747;28;20032;-46
2023/12/09 10:08:55;;;;;;;26.40;12.38;;;1.40;1.00;;;;;;5211410;28;20021;-46
2023/12/09 10:11:26;;;;;;;24.80;14.13;;;1.40;1.00;;;;;;5210566;28;20029;-46
2023/12/09 10:13:58;;;;;;;21.88;12.35;;;1.50;1.00;;;;;;5181907;28;20247;-46
2023/12/09 10:16:33;;;;;;;29.67;12.85;;;1.60;1.00;;;;;;5198373;28;20395;-45
2023/12/09 10:19:08;;;;;;;25.75;12.57;;;1.60;1.00;;;;;;5210443;28;20039;-46
2023/12/09 10:21:39;;;;;;;23.45;12.88;;;1.50;1.00;;;;;;5196565;28;20033;-46
2023/12/09 10:24:13;;;;;;;21.27;11.82;;;1.60;1.00;;;;;;5201892;28;20040;-46
2023/12/09 10:26:47;;;;;;;26.10;12.65;;;1.60;1.00;;;;;;5207928;28;21399;-45
2023/12/09 10:29:20;;;;;;;22.35;11.80;;;1.60;1.00;;;;;;5199164;28;20028;-46
2023/12/09 10:31:52;;;;;;;19.55;10.85;;;1.70;1.00;;;;;;5203441;28;20439;-46
2023/12/09 10:34:23;;;;;;;26.35;13.55;;;1.60;1.00;;;;;;5205299;28;20143;-44
2023/12/09 10:36:57;;;;;;;20.60;10.80;;;1.70;1.00;;;;;;5206858;28;20040;-44
2023/12/09 10:39:31;;;;;;;21.80;11.40;;;1.70;1.00;;;;;;5214811;28;20410;-44
2023/12/09 10:42:05;;;;;;;17.75;11.40;;;1.80;1.00;;;;;;5209861;28;20068;-45
2023/12/09 10:44:37;;;;;;;20.15;10.77;;;1.70;1.00;;;;;;5211625;28;20029;-44
2023/12/09 10:47:13;;;;;;;16.63;9.85;;;1.80;1.00;;;;;;5208470;28;20037;-46
2023/12/09 10:49:44;;;;;;;22.48;11.98;;;1.60;1.00;;;;;;5210076;28;20213;-44
2023/12/09 10:52:15;;;;;;;24.83;14.05;;;1.60;1.00;;;;;;5214384;28;20377;-44
2023/12/09 10:54:49;;;;;;;49.28;20.55;;;1.70;1.00;;;;;;5207258;28;20191;-44
2023/12/09 10:57:26;;;;;;;38.65;18.80;;;1.70;1.00;;;;;;5212072;28;20305;-49
2023/12/09 11:00:01;;;;;;;32.15;15.38;;;1.90;1.00;;;;;;5207427;28;20417;-44
2023/12/09 11:02:32;;;;;;;23.10;12.93;;;1.90;1.00;;;;;;5201023;28;20062;-44
2023/12/09 11:05:07;;;;;;;25.17;12.40;;;2.00;1.00;;;;;;5209078;28;20056;-44
2023/12/09 11:07:44;;;;;;;23.88;12.02;;;2.10;1.00;;;;;;5211022;28;20352;-44
2023/12/09 11:10:18;;;;;;;22.08;10.57;;;2.10;1.00;;;;;;5212986;28;20043;-44
2023/12/09 11:12:49;;;;;;;19.25;11.82;;;2.20;1.00;;;;;;5207243;28;20374;-44
2023/12/09 11:15:28;;;;;;;22.52;12.38;;;2.10;1.00;;;;;;5205762;28;20029;-44
2023/12/09 11:18:11;;;;;;;19.35;11.23;;;2.10;1.00;;;;;;5193304;28;20225;-44
2023/12/09 11:20:43;;;;;;;25.35;11.10;;;2.10;1.00;;;;;;5185195;28;20033;-44
2023/12/09 11:23:14;;;;;;;17.73;10.77;;;2.00;1.00;;;;;;5200883;28;20348;-44
2023/12/09 11:25:46;;;;;;;17.55;9.82;;;1.90;1.00;;;;;;5202496;28;20038;-44
2023/12/09 11:28:17;;;;;;;16.10;8.98;;;1.80;1.00;;;;;;5200435;28;20347;-44
2023/12/09 11:30:48;;;;;;;20.75;12.27;;;1.70;1.00;;;;;;5194958;28;20276;-43
2023/12/09 11:33:22;;;;;;;18.00;10.73;;;1.90;1.00;;;;;;5188108;28;20052;-44
2023/12/09 11:35:56;;;;;;;18.17;9.90;;;2.10;1.00;;;;;;5196249;28;20028;-44
2023/12/09 11:38:30;;;;;;;19.30;10.25;;;2.30;1.00;;;;;;5205988;28;20051;-44
2023/12/09 11:41:01;;;;;;;19.50;10.07;;;2.30;1.00;;;;;;5224625;28;20045;-44
2023/12/09 11:43:33;;;;;;;19.98;9.82;;;2.30;1.00;;;;;;5209536;28;20351;-44
2023/12/09 11:46:05;;;;;;;19.35;8.10;;;2.10;1.00;;;;;;5202022;28;20047;-44
2023/12/09 11:48:39;;;;;;;20.35;11.55;;;2.00;1.00;;;;;;5210011;28;20029;-44
2023/12/09 11:51:11;;;;;;;;;;;2.10;1.00;;;;;;5207491;28;20025;-44
2023/12/09 11:53:53;;;;;;;20.75;10.73;;;2.10;1.00;;;;;;5208991;28;20197;-44
2023/12/09 11:56:26;;;;;;;20.95;9.50;;;2.20;1.00;;;;;;5207662;28;20060;-44
2023/12/09 11:58:58;;;;;;;15.88;9.35;;;2.20;1.00;;;;;;5209805;28;20099;-44
2023/12/09 12:01:32;;;;;;;13.73;7.53;;;2.10;1.00;;;;;;5209103;28;20052;-44
2023/12/09 12:04:03;;;;;;;13.07;7.10;;;1.90;1.00;;;;;;5210761;28;20244;-44
2023/12/09 12:06:35;;;;;;;13.73;7.57;;;1.90;1.00;;;;;;5194343;28;20435;-44
2023/12/09 12:09:07;;;;;;;14.88;8.18;;;1.70;1.00;;;;;;5209652;28;20052;-44
2023/12/09 12:11:40;;;;;;;10.85;7.28;;;1.70;1.00;;;;;;5213045;28;20294;-45
2023/12/09 12:14:12;;;;;;;17.10;8.07;;;1.60;1.00;;;;;;5212052;28;20306;-45
2023/12/09 12:16:46;;;;;;;14.32;7.55;;;1.60;1.00;;;;;;5207571;28;20383;-44
2023/12/09 12:19:18;;;;;;;14.80;6.03;;;1.50;1.00;;;;;;5212402;28;20025;-45
2023/12/09 12:21:55;;;;;;;13.95;7.35;;;1.50;1.00;;;;;;5211654;28;20212;-45
2023/12/09 12:24:30;;;;;;;11.45;7.05;;;1.40;1.00;;;;;;5211568;28;20335;-45
2023/12/09 12:27:03;;;;;;;12.57;7.25;;;1.40;1.00;;;;;;5208404;28;20233;-45
2023/12/09 12:29:37;;;;;;;13.82;7.18;;;1.40;1.00;;;;;;5210631;28;20020;-45
2023/12/09 12:32:14;;;;;;;12.43;6.97;;;1.30;1.00;;;;;;5207338;28;20021;-45
2023/12/09 12:34:45;;;;;;;15.52;7.40;;;1.40;1.00;;;;;;5208873;28;20025;-45
2023/12/09 12:37:18;;;;;;;13.35;7.18;;;1.50;1.00;;;;;;5211417;28;20248;-45
2023/12/09 12:39:52;;;;;;;11.75;6.80;;;1.60;7.30;;;;;;5192807;28;20037;-45
2023/12/09 12:42:29;;;;;;;13.02;7.60;;;1.40;1.00;;;;;;5201409;28;20528;-45
2023/12/09 12:45:03;;;;;;;13.25;7.13;;;1.30;1.00;;;;;;5209516;28;20025;-45
2023/12/09 12:47:34;;;;;;;14.60;7.18;;;1.20;1.00;;;;;;5194742;28;20044;-45
2023/12/09 12:50:06;;;;;;;15.32;8.07;;;1.20;1.00;;;;;;5205170;28;20040;-45
2023/12/09 12:52:45;;;;;;;9.88;6.50;;;1.40;46.40;;;;;;5203611;28;20033;-45
2023/12/09 12:55:17;;;;;;;11.25;6.60;;;1.50;45.50;;;;;;5206183;28;20029;-45
2023/12/09 12:57:51;;;;;;;14.02;6.75;;;1.60;3.40;;;;;;5200665;28;20044;-45
2023/12/09 13:00:24;;;;;;;15.18;8.32;;;1.60;1.00;;;;;;5201189;28;20032;-45
2023/12/09 13:02:56;;;;;;;13.10;7.25;;;1.60;1.00;;;;;;5204863;28;20037;-45
2023/12/09 13:05:27;;;;;;;12.85;7.45;;;1.70;1.00;;;;;;5205076;28;20357;-45
2023/12/09 13:07:59;;;;;;;13.38;7.47;;;1.70;1.00;;;;;;5212367;28;20029;-45
2023/12/09 13:10:31;;;;;;;13.43;7.50;;;1.50;1.00;;;;;;5191626;28;20037;-46
2023/12/09 13:13:05;;;;;;;13.85;8.75;;;1.50;1.00;;;;;;5206167;28;20043;-46
2023/12/09 13:15:36;;;;;;;13.30;8.10;;;1.30;1.00;;;;;;5201856;28;20037;-46
2023/12/09 13:18:07;;;;;;;17.40;8.80;;;1.10;1.00;;;;;;5205351;28;20039;-45